Time;durP1;ratioP1;P1;durP2;ratioP2;P2;SDS_P1;SDS_P2;PMS_P1;PMS_P2;Temp;Humidity;BMP_temperature;BMP_pressure;BME280_temperature;BME280_humidity;BME280_pressure;Samples;Min_cycle;Max_cycle;Signal;HPM_P1;HPM_P2
2021/12/09 00:01:39;;;;;;;1999.90;792.57;;;2.80;99.90;;;;;;4902642;29;20451;-74
2021/12/09 00:04:11;;;;;;;1999.90;736.73;;;2.80;99.90;;;;;;4902471;29;20600;-74
2021/12/09 00:06:39;;;;;;;1999.90;999.90;;;2.80;99.90;;;;;;4902546;29;20455;-74
2021/12/09 00:09:10;;;;;;;1925.77;373.87;;;2.80;99.90;;;;;;4902240;29;20906;-74
2021/12/09 00:11:43;;;;;;;1108.33;331.27;;;2.80;99.90;;;;;;4903171;29;20826;-74
2021/12/09 00:14:14;;;;;;;1388.97;539.87;;;2.80;99.90;;;;;;4919014;29;20523;-76
2021/12/09 00:16:46;;;;;;;1999.90;999.90;;;2.80;99.90;;;;;;4919557;29;20471;-77
2021/12/09 00:19:14;;;;;;;1226.33;267.30;;;2.80;99.90;;;;;;4902041;29;20469;-76
2021/12/09 00:21:42;;;;;;;1999.90;999.90;;;2.80;99.90;;;;;;4901553;29;20558;-77
2021/12/09 00:24:11;;;;;;;1999.90;999.90;;;2.80;99.90;;;;;;4902412;29;20482;-76
2021/12/09 00:26:40;;;;;;;1999.90;999.90;;;2.80;99.90;;;;;;4918945;29;20944;-74
2021/12/09 00:29:08;;;;;;;1999.90;719.67;;;2.90;99.90;;;;;;4901778;29;21070;-75
2021/12/09 00:31:38;;;;;;;1999.90;999.90;;;2.80;99.90;;;;;;4901781;29;20453;-76
2021/12/09 00:34:06;;;;;;;1999.90;999.90;;;2.80;99.90;;;;;;4901805;29;20560;-74
2021/12/09 00:36:39;;;;;;;1444.23;372.87;;;2.80;99.90;;;;;;4902044;29;21104;-74
2021/12/09 00:39:09;;;;;;;1999.90;731.63;;;2.80;99.90;;;;;;4917545;29;20450;-77
2021/12/09 00:41:38;;;;;;;1949.83;743.97;;;2.80;99.90;;;;;;4901663;29;20496;-76
2021/12/09 00:44:08;;;;;;;1192.73;304.67;;;2.90;99.90;;;;;;4918823;29;20469;-74
2021/12/09 00:46:38;;;;;;;1999.90;999.90;;;2.90;99.90;;;;;;4919190;29;20423;-74
2021/12/09 00:49:07;;;;;;;1771.67;452.87;;;2.90;99.90;;;;;;4901635;29;20468;-76
2021/12/09 00:51:36;;;;;;;1353.50;316.83;;;2.90;99.90;;;;;;4901510;29;20493;-76
2021/12/09 00:54:04;;;;;;;1999.90;999.90;;;2.90;99.90;;;;;;4901339;29;20472;-76
2021/12/09 00:56:32;;;;;;;677.03;250.77;;;2.90;99.90;;;;;;4901563;29;20523;-77
2021/12/09 00:59:01;;;;;;;1999.90;999.90;;;2.90;99.90;;;;;;4901539;29;20546;-76
2021/12/09 01:01:29;;;;;;;1999.90;999.90;;;2.90;99.90;;;;;;4901473;29;20454;-77
2021/12/09 01:03:59;;;;;;;1999.90;999.90;;;2.90;99.90;;;;;;4901237;29;20480;-74
2021/12/09 01:06:27;;;;;;;1217.47;534.57;;;2.90;99.90;;;;;;4901486;29;20497;-74
2021/12/09 01:08:55;;;;;;;1999.90;999.90;;;2.90;99.90;;;;;;4901508;29;20460;-75
2021/12/09 01:11:23;;;;;;;1134.43;226.37;;;2.90;99.90;;;;;;4918297;29;20472;-74
2021/12/09 01:13:52;;;;;;;780.57;306.67;;;2.90;99.90;;;;;;4918263;29;21067;-74
2021/12/09 01:16:20;;;;;;;1999.90;999.90;;;2.90;99.90;;;;;;4918411;29;20511;-74
2021/12/09 01:18:48;;;;;;;809.13;244.70;;;2.90;99.90;;;;;;4918264;29;20448;-74
2021/12/09 01:21:17;;;;;;;484.63;225.10;;;2.90;99.90;;;;;;4901391;29;20560;-74
2021/12/09 01:23:46;;;;;;;1999.90;999.90;;;2.90;99.90;;;;;;4900878;29;20482;-74
2021/12/09 01:26:14;;;;;;;1999.90;999.90;;;2.90;99.90;;;;;;4917911;29;20446;-74
2021/12/09 01:28:47;;;;;;;1999.90;999.90;;;2.90;99.90;;;;;;4917811;29;20469;-74
2021/12/09 01:31:22;;;;;;;1999.90;999.90;;;2.90;99.90;;;;;;4901610;29;20560;-74
2021/12/09 01:33:53;;;;;;;1999.90;999.90;;;2.90;99.90;;;;;;4900696;29;20470;-74
2021/12/09 01:36:22;;;;;;;1433.67;359.87;;;2.90;99.90;;;;;;4917861;29;20458;-74
2021/12/09 01:38:50;;;;;;;1999.90;999.90;;;2.90;99.90;;;;;;4900808;29;20472;-74
2021/12/09 01:41:20;;;;;;;1485.10;487.77;;;2.90;99.90;;;;;;4901622;29;20495;-74
2021/12/09 01:43:49;;;;;;;1275.37;355.17;;;3.00;99.90;;;;;;4900836;29;20923;-74
2021/12/09 01:46:20;;;;;;;953.23;344.00;;;2.90;99.90;;;;;;4900793;29;21004;-74
2021/12/09 01:48:52;;;;;;;1999.90;999.90;;;2.90;99.90;;;;;;4900684;29;20450;-74
2021/12/09 01:51:22;;;;;;;934.17;448.53;;;2.90;99.90;;;;;;4901698;29;20479;-75
2021/12/09 01:53:52;;;;;;;1999.90;999.90;;;2.90;99.90;;;;;;4900539;29;20523;-74
2021/12/09 01:56:24;;;;;;;1999.90;999.90;;;2.90;99.90;;;;;;4901551;29;20461;-74
2021/12/09 01:59:02;;;;;;;1171.30;280.47;;;2.90;99.90;;;;;;4900513;29;20443;-74
2021/12/09 02:01:31;;;;;;;969.37;253.57;;;2.90;99.90;;;;;;4917518;29;20427;-74
2021/12/09 02:04:00;;;;;;;1229.77;152.17;;;2.90;99.90;;;;;;4917489;29;20468;-74
2021/12/09 02:06:31;;;;;;;1999.90;999.90;;;2.90;99.90;;;;;;4917660;29;20480;-74
2021/12/09 02:08:59;;;;;;;1999.90;229.47;;;2.90;99.90;;;;;;4900459;29;20459;-74
2021/12/09 02:11:27;;;;;;;1024.23;385.07;;;2.90;99.90;;;;;;4917227;29;20482;-74
2021/12/09 02:13:57;;;;;;;1999.90;999.90;;;3.00;99.90;;;;;;4917413;29;20492;-75
2021/12/09 02:16:25;;;;;;;1722.47;723.10;;;3.00;99.90;;;;;;4900223;29;20457;-74
2021/12/09 02:18:54;;;;;;;790.00;193.47;;;2.90;99.90;;;;;;4917311;29;21001;-74
2021/12/09 02:21:26;;;;;;;1172.43;382.00;;;2.90;99.90;;;;;;4917171;29;20438;-74
2021/12/09 02:23:58;;;;;;;1303.03;308.27;;;3.00;99.90;;;;;;4900085;29;20569;-74
2021/12/09 02:26:31;;;;;;;876.37;287.10;;;3.00;99.90;;;;;;4900210;29;20992;-74
2021/12/09 02:29:00;;;;;;;1999.90;999.90;;;3.00;99.90;;;;;;4900186;29;20880;-74
2021/12/09 02:31:29;;;;;;;1999.90;999.90;;;3.00;99.90;;;;;;4917356;29;20522;-75
2021/12/09 02:33:58;;;;;;;1752.83;722.27;;;2.90;99.90;;;;;;4900347;29;20985;-74
2021/12/09 02:36:30;;;;;;;1999.90;999.90;;;3.00;99.90;;;;;;4900183;29;20456;-74
2021/12/09 02:38:58;;;;;;;1287.57;299.67;;;3.00;99.90;;;;;;4900096;29;20536;-74
2021/12/09 02:41:27;;;;;;;1999.90;999.90;;;2.90;99.90;;;;;;4900000;29;20961;-74
2021/12/09 02:44:00;;;;;;;1542.53;639.87;;;2.90;99.90;;;;;;4900598;29;20527;-74
2021/12/09 02:46:29;;;;;;;1999.90;999.90;;;2.90;99.90;;;;;;4902029;29;20545;-74
2021/12/09 02:48:57;;;;;;;1999.90;414.33;;;2.90;99.90;;;;;;4921136;29;20456;-74
2021/12/09 02:51:25;;;;;;;1175.67;298.93;;;2.90;99.90;;;;;;4921096;29;20500;-74
2021/12/09 02:53:55;;;;;;;1560.23;357.97;;;2.90;99.90;;;;;;4903680;29;20476;-74
2021/12/09 02:56:23;;;;;;;1598.57;557.33;;;2.90;99.90;;;;;;4904016;29;20470;-74
2021/12/09 02:58:52;;;;;;;1845.03;460.27;;;2.90;99.90;;;;;;4920567;29;20811;-74
2021/12/09 03:01:24;;;;;;;1999.90;636.83;;;2.90;99.90;;;;;;4903639;29;20449;-74
2021/12/09 03:03:59;;;;;;;1999.90;752.47;;;2.90;99.90;;;;;;4903501;29;21126;-74
2021/12/09 03:06:33;;;;;;;1999.90;742.37;;;2.80;99.90;;;;;;4920857;29;20459;-74
2021/12/09 03:09:07;;;;;;;1916.93;401.63;;;2.80;99.90;;;;;;4903646;29;20448;-74
2021/12/09 03:11:36;;;;;;;1962.03;175.27;;;2.80;99.90;;;;;;4903461;29;20857;-74
2021/12/09 03:14:05;;;;;;;1999.90;800.97;;;2.80;99.90;;;;;;4903471;29;20469;-74
2021/12/09 03:16:34;;;;;;;1999.90;437.60;;;2.80;99.90;;;;;;4920803;29;20540;-74
2021/12/09 03:19:08;;;;;;;1999.90;658.07;;;2.80;99.90;;;;;;4903590;29;20456;-74
2021/12/09 03:21:39;;;;;;;1731.40;299.03;;;2.80;99.90;;;;;;4903227;29;20494;-75
2021/12/09 03:24:11;;;;;;;1999.90;576.37;;;2.70;99.90;;;;;;4920121;29;20461;-74
2021/12/09 03:26:59;;;;;;;1974.33;222.47;;;2.70;99.90;;;;;;4903234;29;20449;-74
2021/12/09 03:29:30;;;;;;;1999.90;362.33;;;2.70;99.90;;;;;;4920280;29;20465;-74
2021/12/09 03:32:00;;;;;;;1999.90;999.90;;;2.70;99.90;;;;;;4902998;29;20993;-74
2021/12/09 03:34:30;;;;;;;1999.90;824.57;;;2.70;99.90;;;;;;4920023;29;20456;-74
2021/12/09 03:37:01;;;;;;;1678.10;355.10;;;2.60;99.90;;;;;;4903327;29;20547;-74
2021/12/09 03:39:33;;;;;;;1999.90;425.83;;;2.60;99.90;;;;;;4902931;29;20533;-74
2021/12/09 03:42:03;;;;;;;1999.90;379.57;;;2.60;99.90;;;;;;4902916;29;20544;-74
2021/12/09 03:44:32;;;;;;;1999.90;338.57;;;2.60;99.90;;;;;;4919849;29;20460;-74
2021/12/09 03:47:04;;;;;;;1999.90;358.60;;;2.60;99.90;;;;;;4902658;29;20827;-74
2021/12/09 03:49:33;;;;;;;1999.90;999.90;;;2.60;99.90;;;;;;4902887;29;20440;-74
2021/12/09 03:52:01;;;;;;;1999.90;524.93;;;2.60;99.90;;;;;;4903268;29;20477;-74
2021/12/09 03:54:31;;;;;;;1999.90;999.90;;;2.50;99.90;;;;;;4903010;29;20931;-74
2021/12/09 03:56:59;;;;;;;1682.70;318.97;;;2.50;99.90;;;;;;4919315;29;20496;-74
2021/12/09 03:59:28;;;;;;;1780.03;319.40;;;2.50;99.90;;;;;;4903475;29;20461;-74
2021/12/09 04:01:56;;;;;;;1999.90;813.77;;;2.50;99.90;;;;;;4902860;29;21044;-74
2021/12/09 04:04:25;;;;;;;1999.90;999.90;;;2.50;99.90;;;;;;4919409;29;20474;-74
2021/12/09 04:06:53;;;;;;;1932.13;314.07;;;2.50;99.90;;;;;;4919344;29;20488;-74
2021/12/09 04:09:22;;;;;;;1927.57;366.63;;;2.50;99.90;;;;;;4902380;29;20477;-74
2021/12/09 04:11:52;;;;;;;1999.90;785.20;;;2.50;99.90;;;;;;4919353;29;20486;-74
2021/12/09 04:14:21;;;;;;;1999.90;797.53;;;2.40;99.90;;;;;;4919390;29;21009;-74
2021/12/09 04:16:50;;;;;;;1999.90;813.67;;;2.40;99.90;;;;;;4919479;29;20453;-74
2021/12/09 04:19:19;;;;;;;1999.90;304.23;;;2.40;99.90;;;;;;4902262;29;20504;-74
2021/12/09 04:21:48;;;;;;;1999.90;381.07;;;2.40;99.90;;;;;;4902005;29;21039;-76
2021/12/09 04:24:17;;;;;;;1999.90;315.23;;;2.40;99.90;;;;;;4902051;29;20480;-74
2021/12/09 04:26:49;;;;;;;1586.37;296.33;;;2.40;99.90;;;;;;4902191;29;20456;-74
2021/12/09 04:29:19;;;;;;;1999.90;298.93;;;2.40;99.90;;;;;;4902163;29;20858;-74
2021/12/09 04:31:48;;;;;;;1999.90;490.93;;;2.40;99.90;;;;;;4902280;29;20562;-74
2021/12/09 04:34:18;;;;;;;1999.90;484.30;;;2.30;99.90;;;;;;4902067;29;20472;-74
2021/12/09 04:36:46;;;;;;;1999.90;609.50;;;2.30;99.90;;;;;;4901839;29;20466;-74
2021/12/09 04:39:15;;;;;;;1999.90;822.90;;;2.30;99.90;;;;;;4901805;29;20560;-74
2021/12/09 04:41:43;;;;;;;1999.90;878.27;;;2.30;99.90;;;;;;4901953;29;20950;-74
2021/12/09 04:44:11;;;;;;;1846.07;346.20;;;2.30;99.90;;;;;;4901799;29;20544;-74
2021/12/09 04:46:41;;;;;;;1999.90;599.13;;;2.30;99.90;;;;;;4919029;29;20543;-74
2021/12/09 04:49:10;;;;;;;1696.63;310.13;;;2.30;99.90;;;;;;4918636;29;20784;-74
2021/12/09 04:51:38;;;;;;;1999.90;343.83;;;2.20;99.90;;;;;;4901526;29;20843;-74
2021/12/09 04:54:07;;;;;;;1563.37;350.73;;;2.20;99.90;;;;;;4901441;29;21111;-74
2021/12/09 04:56:36;;;;;;;1999.90;556.27;;;2.20;99.90;;;;;;4901446;29;20453;-74
2021/12/09 04:59:05;;;;;;;1999.90;338.50;;;2.20;99.90;;;;;;4918541;29;20796;-74
2021/12/09 05:01:34;;;;;;;1657.50;312.83;;;2.20;99.90;;;;;;4901323;29;21065;-73
2021/12/09 05:04:05;;;;;;;1999.90;410.77;;;2.20;99.90;;;;;;4901433;29;20911;-73
2021/12/09 05:06:33;;;;;;;1999.90;464.83;;;2.20;99.90;;;;;;4918776;29;20538;-74
2021/12/09 05:09:06;;;;;;;1999.90;369.07;;;2.20;99.90;;;;;;4900418;29;20453;-74
2021/12/09 05:11:48;;;;;;;1999.90;400.37;;;2.20;99.90;;;;;;4901422;29;20516;-74
2021/12/09 05:14:17;;;;;;;1807.60;254.90;;;2.10;99.90;;;;;;4901401;29;20476;-74
2021/12/09 05:16:47;;;;;;;1564.10;265.47;;;2.10;99.90;;;;;;4901176;29;20488;-74
2021/12/09 05:19:17;;;;;;;1999.90;413.83;;;2.10;99.90;;;;;;4901209;29;20457;-74
2021/12/09 05:21:46;;;;;;;1999.90;349.07;;;2.10;99.90;;;;;;4900939;29;20460;-74
2021/12/09 05:24:16;;;;;;;1999.90;382.37;;;2.10;99.90;;;;;;4900803;29;20500;-74
2021/12/09 05:26:48;;;;;;;1999.90;439.60;;;2.10;99.90;;;;;;4900901;29;20458;-74
2021/12/09 05:29:18;;;;;;;1999.90;427.03;;;2.10;99.90;;;;;;4901104;29;20891;-74
2021/12/09 05:34:33;;;;;;;1999.90;280.47;;;2.00;99.90;;;;;;4901011;29;21081;-74
2021/12/09 05:37:01;;;;;;;1999.90;346.27;;;2.00;99.90;;;;;;4900709;29;20550;-74
2021/12/09 05:39:30;;;;;;;1447.17;296.33;;;2.00;99.90;;;;;;4917946;29;20865;-74
2021/12/09 05:41:58;;;;;;;1999.90;309.00;;;2.00;99.90;;;;;;4900559;29;20834;-74
2021/12/09 05:44:26;;;;;;;1972.73;320.13;;;2.00;99.90;;;;;;4900747;29;20511;-74
2021/12/09 05:46:54;;;;;;;1999.90;660.43;;;2.00;99.90;;;;;;4917539;29;20794;-74
2021/12/09 05:49:23;;;;;;;1987.27;323.27;;;2.00;99.90;;;;;;4917533;29;20439;-74
2021/12/09 05:51:53;;;;;;;1999.90;306.50;;;2.00;99.90;;;;;;4917771;29;20454;-74
2021/12/09 05:54:21;;;;;;;1999.90;298.27;;;1.90;99.90;;;;;;4900969;29;21035;-74
2021/12/09 05:56:50;;;;;;;1999.90;437.27;;;1.90;99.90;;;;;;4900799;29;20963;-74
2021/12/09 05:59:18;;;;;;;1195.53;252.87;;;1.90;99.90;;;;;;4917509;29;20476;-74
2021/12/09 06:01:46;;;;;;;1999.90;598.40;;;1.90;99.90;;;;;;4900608;29;20465;-74
2021/12/09 06:04:15;;;;;;;1999.90;267.63;;;1.90;99.90;;;;;;4900884;29;20475;-74
2021/12/09 06:06:43;;;;;;;1999.90;999.90;;;1.90;99.90;;;;;;4900341;29;21078;-74
2021/12/09 06:09:13;;;;;;;1999.90;320.37;;;1.90;99.90;;;;;;4917178;29;20963;-74
2021/12/09 06:11:43;;;;;;;1999.90;288.03;;;1.90;99.90;;;;;;4900158;29;20473;-74
2021/12/09 06:14:11;;;;;;;1224.67;242.40;;;1.90;99.90;;;;;;4917164;29;20540;-74
2021/12/09 06:16:40;;;;;;;1999.90;280.33;;;1.90;99.90;;;;;;4900178;29;20466;-74
2021/12/09 06:19:09;;;;;;;1999.90;796.87;;;1.90;99.90;;;;;;4900070;29;20460;-74
2021/12/09 06:21:37;;;;;;;1999.90;328.77;;;1.90;99.90;;;;;;4900032;29;20894;-74
2021/12/09 06:24:05;;;;;;;1755.47;203.83;;;1.90;99.90;;;;;;4900047;29;20510;-74
2021/12/09 06:26:35;;;;;;;1999.90;374.90;;;1.90;99.90;;;;;;4900104;29;20462;-74
2021/12/09 06:29:07;;;;;;;1999.90;305.50;;;1.90;99.90;;;;;;4900373;29;20464;-74
2021/12/09 06:31:35;;;;;;;1999.90;293.37;;;1.90;99.90;;;;;;4917221;29;20508;-74
2021/12/09 06:34:04;;;;;;;1999.90;308.20;;;2.00;99.90;;;;;;4917320;29;20908;-74
2021/12/09 06:36:32;;;;;;;1999.90;234.80;;;1.90;99.90;;;;;;4900055;29;20460;-74
2021/12/09 06:39:00;;;;;;;1999.90;380.77;;;2.00;99.90;;;;;;4900092;29;20974;-74
2021/12/09 06:41:28;;;;;;;1715.93;240.60;;;2.00;99.90;;;;;;4899947;29;20456;-74
2021/12/09 06:43:58;;;;;;;1999.90;999.90;;;2.00;99.90;;;;;;4917261;29;20464;-74
2021/12/09 06:46:27;;;;;;;1243.70;239.90;;;2.00;99.90;;;;;;4917383;29;20429;-74
2021/12/09 06:48:57;;;;;;;1999.90;335.67;;;2.00;99.90;;;;;;4917482;29;20797;-74
2021/12/09 06:51:25;;;;;;;1999.90;291.40;;;2.00;99.90;;;;;;4900181;29;20460;-74
2021/12/09 06:53:53;;;;;;;1999.90;799.13;;;2.00;99.90;;;;;;4900262;29;20488;-74
2021/12/09 06:56:22;;;;;;;1798.67;251.77;;;2.00;99.90;;;;;;4899983;29;20551;-74
2021/12/09 06:58:50;;;;;;;972.43;211.30;;;2.00;99.90;;;;;;4899925;29;21019;-74
2021/12/09 07:01:19;;;;;;;1999.90;470.90;;;2.00;99.90;;;;;;4899670;29;20455;-74
2021/12/09 07:03:48;;;;;;;1999.90;754.27;;;2.00;99.90;;;;;;4899481;29;20485;-74
2021/12/09 07:06:16;;;;;;;1999.90;752.83;;;2.00;99.90;;;;;;4916741;29;20978;-74
2021/12/09 07:08:46;;;;;;;1999.90;292.57;;;2.00;99.90;;;;;;4900519;29;20480;-74
2021/12/09 07:11:16;;;;;;;980.27;210.57;;;1.90;99.90;;;;;;4916885;29;20447;-74
2021/12/09 07:13:45;;;;;;;1200.83;425.87;;;2.00;99.90;;;;;;4899519;29;20536;-74
2021/12/09 07:16:13;;;;;;;1999.90;775.63;;;2.00;99.90;;;;;;4899592;29;20513;-74
2021/12/09 07:18:43;;;;;;;1885.40;724.90;;;2.00;99.90;;;;;;4899749;29;20625;-74
2021/12/09 07:21:12;;;;;;;1999.90;345.20;;;2.00;99.90;;;;;;4916425;29;21046;-74
2021/12/09 07:23:40;;;;;;;1999.90;337.87;;;2.00;99.90;;;;;;4899362;29;20492;-74
2021/12/09 07:26:09;;;;;;;1976.80;734.37;;;1.90;99.90;;;;;;4916722;29;20476;-73
2021/12/09 07:28:38;;;;;;;1999.90;759.10;;;1.90;99.90;;;;;;4884339;29;20528;-74
2021/12/09 07:31:07;;;;;;;1999.90;404.07;;;2.00;99.90;;;;;;4916526;29;20913;-74
2021/12/09 07:33:35;;;;;;;947.03;210.17;;;2.00;99.90;;;;;;4919982;29;20481;-74
2021/12/09 07:36:05;;;;;;;1999.90;999.90;;;2.00;99.90;;;;;;4920170;29;20444;-74
2021/12/09 07:38:34;;;;;;;720.50;164.80;;;2.00;99.90;;;;;;4903215;29;20441;-74
2021/12/09 07:41:03;;;;;;;1315.83;427.20;;;2.00;99.90;;;;;;4919741;29;20983;-74
2021/12/09 07:43:31;;;;;;;1999.90;768.30;;;2.00;99.90;;;;;;4919922;29;20827;-74
2021/12/09 07:46:00;;;;;;;979.57;196.17;;;2.00;99.90;;;;;;4902906;29;20492;-74
2021/12/09 07:48:28;;;;;;;1999.90;999.90;;;2.00;99.90;;;;;;4902670;29;20523;-74
2021/12/09 07:50:56;;;;;;;1999.90;251.50;;;2.00;99.90;;;;;;4902547;29;20453;-74
2021/12/09 07:53:26;;;;;;;1999.90;351.00;;;2.00;99.90;;;;;;4920078;29;20976;-74
2021/12/09 07:55:55;;;;;;;1999.90;746.23;;;2.00;99.90;;;;;;4902871;29;20453;-74
2021/12/09 07:58:24;;;;;;;1999.90;999.90;;;2.00;99.90;;;;;;4902787;29;20964;-74
2021/12/09 08:00:52;;;;;;;886.40;189.23;;;2.10;99.90;;;;;;4902700;29;20551;-74
2021/12/09 08:03:21;;;;;;;1999.90;999.90;;;2.10;99.90;;;;;;4919963;29;20512;-74
2021/12/09 08:05:49;;;;;;;1277.60;137.63;;;2.10;99.90;;;;;;4902726;29;20458;-74
2021/12/09 08:08:18;;;;;;;1999.90;500.30;;;2.10;99.90;;;;;;4902679;29;20454;-74
2021/12/09 08:10:48;;;;;;;1999.90;376.57;;;2.10;99.90;;;;;;4903052;29;20448;-74
2021/12/09 08:13:16;;;;;;;1897.37;295.43;;;2.00;99.90;;;;;;4902342;29;20485;-74
2021/12/09 08:15:49;;;;;;;1815.90;476.70;;;2.10;99.90;;;;;;4902176;29;21012;-74
2021/12/09 08:18:30;;;;;;;1999.90;999.90;;;2.10;99.90;;;;;;4902145;29;20480;-74
2021/12/09 08:21:00;;;;;;;1999.90;286.40;;;2.10;99.90;;;;;;4902924;29;20477;-74
2021/12/09 08:23:28;;;;;;;839.73;168.30;;;2.10;99.90;;;;;;4901984;29;20587;-74
2021/12/09 08:25:58;;;;;;;822.47;175.23;;;2.10;99.90;;;;;;4919112;29;20549;-74
2021/12/09 08:28:26;;;;;;;1999.90;999.90;;;2.10;99.90;;;;;;4902272;29;20458;-74
2021/12/09 08:30:54;;;;;;;616.13;133.77;;;2.10;99.90;;;;;;4902063;29;20516;-74
2021/12/09 08:33:25;;;;;;;1636.70;462.60;;;2.20;99.90;;;;;;4901604;29;20575;-75
2021/12/09 08:35:54;;;;;;;1999.90;999.90;;;2.20;99.90;;;;;;4919016;29;20429;-74
2021/12/09 08:38:23;;;;;;;1605.50;459.80;;;2.20;99.90;;;;;;4901735;29;20456;-74
2021/12/09 08:40:53;;;;;;;1878.87;470.63;;;2.20;99.90;;;;;;4919553;29;20443;-74
2021/12/09 08:43:23;;;;;;;1999.90;999.90;;;2.20;99.90;;;;;;4919073;29;20464;-74
2021/12/09 08:45:53;;;;;;;1999.90;999.90;;;2.20;99.90;;;;;;4902206;29;20501;-74
2021/12/09 08:48:22;;;;;;;1999.90;388.60;;;2.30;99.90;;;;;;4919019;29;20452;-74
2021/12/09 08:50:50;;;;;;;1999.90;433.67;;;2.30;99.90;;;;;;4901743;29;20456;-74
2021/12/09 08:53:21;;;;;;;1999.90;346.03;;;2.30;99.90;;;;;;4901836;29;20474;-74
2021/12/09 08:55:50;;;;;;;1999.90;347.07;;;2.30;99.90;;;;;;4901592;29;20496;-74
2021/12/09 08:58:18;;;;;;;1248.93;403.87;;;2.30;99.90;;;;;;4918974;29;20437;-74
2021/12/09 09:00:51;;;;;;;1665.63;400.00;;;2.30;99.90;;;;;;4901475;29;20547;-74
2021/12/09 09:03:19;;;;;;;1999.90;282.57;;;2.30;99.90;;;;;;4901453;29;20488;-74
2021/12/09 09:05:48;;;;;;;1999.90;999.90;;;2.40;99.90;;;;;;4901412;29;20452;-74
2021/12/09 09:08:17;;;;;;;1972.30;232.83;;;2.40;99.90;;;;;;4918221;29;20450;-74
2021/12/09 09:10:46;;;;;;;1999.90;999.90;;;2.40;99.90;;;;;;4901473;29;20451;-74
2021/12/09 09:13:15;;;;;;;1999.90;999.90;;;2.40;99.90;;;;;;4901111;29;20476;-75
2021/12/09 09:15:48;;;;;;;1999.90;383.30;;;2.50;99.90;;;;;;4918078;29;20478;-74
2021/12/09 09:18:19;;;;;;;1958.57;223.10;;;2.50;99.90;;;;;;4901269;29;20515;-74
2021/12/09 09:20:48;;;;;;;1999.90;279.03;;;2.50;99.90;;;;;;4918262;29;20444;-74
2021/12/09 09:23:19;;;;;;;1896.67;426.73;;;2.50;99.90;;;;;;4900735;29;21055;-74
2021/12/09 09:25:48;;;;;;;1999.90;302.10;;;2.50;99.90;;;;;;4901499;29;21006;-74
2021/12/09 09:28:17;;;;;;;1999.90;492.30;;;2.50;99.90;;;;;;4901246;29;20488;-74
2021/12/09 09:30:53;;;;;;;1740.97;376.10;;;2.60;99.90;;;;;;4901457;29;20461;-74
2021/12/09 09:33:26;;;;;;;1327.07;536.07;;;2.60;99.90;;;;;;4900854;29;20472;-74
2021/12/09 09:35:55;;;;;;;1652.40;348.77;;;2.60;99.90;;;;;;4901479;29;21017;-74
2021/12/09 09:38:24;;;;;;;1999.90;741.43;;;2.60;99.90;;;;;;4900658;29;20534;-74
2021/12/09 09:41:02;;;;;;;1797.70;592.57;;;2.60;99.90;;;;;;4900759;29;20631;-74
2021/12/09 09:43:43;;;;;;;1939.10;508.97;;;2.60;99.90;;;;;;4900632;29;21132;-74
2021/12/09 09:46:14;;;;;;;1999.90;720.60;;;2.60;99.90;;;;;;4900855;29;20947;-74
2021/12/09 09:48:45;;;;;;;1999.90;417.17;;;2.60;99.90;;;;;;4900570;29;20810;-74
2021/12/09 09:51:14;;;;;;;1999.90;451.27;;;2.70;99.90;;;;;;4900649;29;20457;-74
2021/12/09 09:53:42;;;;;;;1621.67;398.00;;;2.70;99.90;;;;;;4900743;29;20565;-74
2021/12/09 09:56:16;;;;;;;1999.90;493.83;;;2.70;99.90;;;;;;4917344;29;20488;-74
2021/12/09 09:58:46;;;;;;;1673.80;566.83;;;2.70;99.90;;;;;;4900474;29;20531;-74
2021/12/09 10:01:15;;;;;;;1658.77;551.07;;;2.70;99.90;;;;;;4900453;29;20494;-74
2021/12/09 10:03:47;;;;;;;1988.23;476.67;;;2.70;99.90;;;;;;4917411;29;20500;-74
2021/12/09 10:06:17;;;;;;;1999.90;999.90;;;2.70;99.90;;;;;;4900369;29;20451;-75
2021/12/09 10:08:46;;;;;;;987.07;371.07;;;2.80;99.90;;;;;;4900392;29;20539;-76
2021/12/09 10:11:15;;;;;;;1999.90;999.90;;;2.80;99.90;;;;;;4900039;29;20454;-76
2021/12/09 10:13:44;;;;;;;829.73;331.50;;;2.80;99.90;;;;;;4916940;29;20463;-77
2021/12/09 10:16:19;;;;;;;493.77;232.13;;;2.80;99.90;;;;;;4899869;29;20557;-77
2021/12/09 10:18:51;;;;;;;1551.20;548.53;;;2.90;99.90;;;;;;4899934;29;20892;-76
2021/12/09 10:21:24;;;;;;;604.43;253.87;;;2.90;99.90;;;;;;4899929;29;20446;-76
2021/12/09 10:24:00;;;;;;;470.33;229.67;;;2.90;99.90;;;;;;4900172;29;20569;-77
2021/12/09 10:26:31;;;;;;;675.67;266.13;;;2.90;99.90;;;;;;4899957;29;20436;-77
2021/12/09 10:29:09;;;;;;;1061.03;315.77;;;2.90;99.90;;;;;;4900905;29;20464;-76
2021/12/09 10:31:43;;;;;;;1198.73;356.07;;;2.90;99.90;;;;;;4899801;29;20552;-76
2021/12/09 10:34:33;;;;;;;1605.37;323.70;;;2.90;99.90;;;;;;4899842;29;20576;-77
2021/12/09 10:37:09;;;;;;;1606.03;553.00;;;3.00;99.90;;;;;;4917034;29;20882;-76
2021/12/09 10:39:41;;;;;;;1999.90;999.90;;;3.00;99.90;;;;;;4899669;29;20477;-76
2021/12/09 10:42:13;;;;;;;1999.90;999.90;;;3.00;99.90;;;;;;4900629;29;20860;-77
2021/12/09 10:44:55;;;;;;;1392.67;454.87;;;3.00;99.90;;;;;;4899649;29;20999;-77
2021/12/09 10:47:35;;;;;;;1822.37;464.63;;;3.00;99.90;;;;;;4917287;29;20438;-76
2021/12/09 10:50:15;;;;;;;1764.37;592.87;;;3.10;99.90;;;;;;4899904;29;20480;-76
2021/12/09 10:52:49;;;;;;;1008.77;313.13;;;3.10;99.90;;;;;;4899702;29;20804;-76
2021/12/09 10:55:21;;;;;;;1645.17;497.70;;;3.10;99.90;;;;;;4899604;29;20477;-76
2021/12/09 10:57:59;;;;;;;1557.80;432.33;;;3.10;99.90;;;;;;4899694;29;20918;-77
2021/12/09 11:00:37;;;;;;;1386.87;369.53;;;3.20;99.90;;;;;;4899470;29;21011;-76
2021/12/09 11:03:13;;;;;;;1851.70;473.93;;;3.20;99.90;;;;;;4916395;29;21013;-77
2021/12/09 11:05:46;;;;;;;843.13;280.33;;;3.20;99.90;;;;;;4899576;29;20457;-76
2021/12/09 11:08:21;;;;;;;1545.63;553.63;;;3.20;99.90;;;;;;4902946;29;20477;-76
2021/12/09 11:10:56;;;;;;;1531.97;436.53;;;3.20;99.90;;;;;;4903387;29;20482;-75
2021/12/09 11:13:26;;;;;;;1266.17;361.87;;;3.20;99.90;;;;;;4903420;29;20612;-74
2021/12/09 11:15:58;;;;;;;563.10;228.97;;;3.20;99.90;;;;;;4920535;29;20552;-74
2021/12/09 11:18:32;;;;;;;1999.90;999.90;;;3.30;99.90;;;;;;4919953;29;20472;-74
2021/12/09 11:21:05;;;;;;;1999.90;999.90;;;3.30;99.90;;;;;;4903087;29;20799;-74
2021/12/09 11:23:40;;;;;;;792.33;282.77;;;3.30;99.90;;;;;;4919966;29;20490;-74
2021/12/09 11:26:40;;;;;;;608.77;244.47;;;3.30;99.90;;;;;;4902970;29;20483;-74
2021/12/09 11:29:11;;;;;;;1224.57;356.17;;;3.30;99.90;;;;;;4903392;29;20944;-75
2021/12/09 11:31:49;;;;;;;536.60;253.77;;;3.40;99.90;;;;;;4903120;29;20964;-74
2021/12/09 11:34:21;;;;;;;799.07;326.23;;;3.40;99.90;;;;;;4902773;29;20896;-74
2021/12/09 11:36:57;;;;;;;803.27;304.23;;;3.40;99.90;;;;;;4902578;29;20472;-75
2021/12/09 11:39:33;;;;;;;725.73;270.63;;;3.40;99.90;;;;;;4920091;29;20416;-74
2021/12/09 11:42:33;;;;;;;1835.60;590.37;;;3.40;99.90;;;;;;4920017;29;20447;-74
2021/12/09 11:45:07;;;;;;;1999.90;999.90;;;3.50;99.90;;;;;;4864305;29;20474;-74
2021/12/09 11:47:36;;;;;;;903.93;302.53;;;3.50;99.90;;;;;;4902599;29;20461;-74
2021/12/09 11:50:13;;;;;;;949.33;258.47;;;3.50;99.90;;;;;;4919979;29;20427;-74
2021/12/09 11:52:44;;;;;;;1519.77;393.60;;;3.50;99.90;;;;;;4919736;29;20510;-74
2021/12/09 11:55:14;;;;;;;1384.77;383.73;;;3.60;99.90;;;;;;4919998;29;20425;-74
2021/12/09 11:57:46;;;;;;;501.80;191.67;;;3.60;99.90;;;;;;4919499;29;20525;-74
2021/12/09 12:12:45;;;;;;;1846.50;455.37;;;3.60;99.90;;;;;;4902375;29;20456;-74
2021/12/09 12:15:48;;;;;;;1999.90;531.33;;;3.60;99.90;;;;;;4919060;29;20447;-75
2021/12/09 12:24:59;;;;;;;1999.90;526.57;;;3.70;99.90;;;;;;4901945;29;20482;-74
2021/12/09 12:27:54;;;;;;;1999.90;675.17;;;3.70;99.90;;;;;;4901930;29;20456;-74
2021/12/09 12:33:24;;;;;;;1994.13;562.43;;;3.80;99.90;;;;;;4892099;29;21004;-74
2021/12/09 12:38:52;;;;;;;1921.20;467.03;;;3.80;99.90;;;;;;4898212;29;20448;-74
2021/12/09 12:41:21;;;;;;;1999.90;510.87;;;3.80;99.90;;;;;;4918934;29;20834;-74
2021/12/09 12:43:57;;;;;;;1146.70;269.77;;;3.80;99.90;;;;;;4918757;29;20471;-74
2021/12/09 12:46:47;;;;;;;1907.80;451.37;;;3.90;99.90;;;;;;4901933;29;20958;-74
2021/12/09 12:49:25;;;;;;;1802.40;491.30;;;3.90;99.90;;;;;;4918779;29;20524;-74
2021/12/09 12:51:58;;;;;;;1823.67;477.17;;;3.90;99.90;;;;;;4901477;29;20543;-74
2021/12/09 12:54:42;;;;;;;1123.07;297.13;;;3.90;99.90;;;;;;4901409;29;21007;-74